Terminal Aerodrome Forecast
Issued by NWS

Home | Current Version | Previous Version | Text Only | Print | Product List | Glossary On
Versions: 1 2 3 4 5 6 7 8 9 10 11 12 13 14 15 16 17
000
FTUS41 KBOX 282320
TAFBED
TAF
KBED 282320Z 2900/2924 03010KT P6SM SCT015 BKN025
     FM291600 05011G18KT P6SM BKN025
     FM292200 06010G17KT P6SM BKN200
     FM292300 06010KT P6SM BKN200=

USA.gov is the U.S. government's official web portal to all federal, state and local government web resources and services.